FNBG/BUG METAR and TAF weather

Enter ICAO airport designator
Station Type Date Time Source
FNBG METAR 2020/03/22 05:00 UTC NOAA

FNBG 220500Z 00000KT 9999 SCT015 23/21 Q1010


Station Type Date Time Source
FNBG Decoded METAR 2020/03/22 05:00 UTC NOAA

Monbaca Benguela , Angola (FNBG) 12-35S 013-25E 4M
Mar 22, 2020 - 01:00 AM EDT / 2020.03.22 0500 UTC
Wind: Calm:0
Visibility: greater than 7 mile(s):0
Sky conditions: partly cloudy
Temperature: 73 F (23 C)
Dew Point: 69 F (21 C)
Relative Humidity: 88%
Pressure (altimeter): 29.83 in. Hg (1010 hPa)
ob: FNBG 220500Z 00000KT 9999 SCT015 23/21 Q1010
cycle: 5

Station Type Date Time Source
FNBG TAF 2020/04/08 12:00 UTC NOAA

TAF FNBG 081100Z 0812/0824 31010KT 9999 BKN020
BECMG 0820/0822 18015KT SCT015

Example: see airport list